sensor_id;sensor_type;location;lat;lon;timestamp;P1;durP1;ratioP1;P2;durP2;ratioP2
28304;SDS011;15569;42.652;23.040;2023-04-25T00:00:28;4.78;;;1.48;;
28304;SDS011;15569;42.652;23.040;2023-04-25T00:02:54;1.98;;;1.67;;
28304;SDS011;15569;42.652;23.040;2023-04-25T00:05:21;3.03;;;1.75;;
28304;SDS011;15569;42.652;23.040;2023-04-25T00:07:48;11.57;;;2.70;;
28304;SDS011;15569;42.652;23.040;2023-04-25T00:10:14;7.57;;;2.45;;
28304;SDS011;15569;42.652;23.040;2023-04-25T00:12:40;16.95;;;3.13;;
28304;SDS011;15569;42.652;23.040;2023-04-25T00:15:06;3.50;;;2.28;;
28304;SDS011;15569;42.652;23.040;2023-04-25T00:17:32;5.45;;;2.35;;
28304;SDS011;15569;42.652;23.040;2023-04-25T00:19:59;5.03;;;1.73;;
28304;SDS011;15569;42.652;23.040;2023-04-25T00:22:25;3.58;;;1.90;;
28304;SDS011;15569;42.652;23.040;2023-04-25T00:24:51;9.45;;;2.65;;
28304;SDS011;15569;42.652;23.040;2023-04-25T00:27:18;4.20;;;2.35;;
28304;SDS011;15569;42.652;23.040;2023-04-25T00:29:43;6.78;;;2.38;;
28304;SDS011;15569;42.652;23.040;2023-04-25T00:32:09;3.78;;;2.22;;
28304;SDS011;15569;42.652;23.040;2023-04-25T00:34:35;5.80;;;2.60;;
28304;SDS011;15569;42.652;23.040;2023-04-25T00:37:00;5.75;;;2.42;;
28304;SDS011;15569;42.652;23.040;2023-04-25T00:39:27;5.25;;;3.35;;
28304;SDS011;15569;42.652;23.040;2023-04-25T00:41:52;7.80;;;4.40;;
28304;SDS011;15569;42.652;23.040;2023-04-25T00:44:19;5.80;;;3.50;;
28304;SDS011;15569;42.652;23.040;2023-04-25T00:46:46;5.10;;;3.33;;
28304;SDS011;15569;42.652;23.040;2023-04-25T00:49:13;5.15;;;2.83;;
28304;SDS011;15569;42.652;23.040;2023-04-25T00:51:41;5.55;;;2.13;;
28304;SDS011;15569;42.652;23.040;2023-04-25T00:54:07;9.70;;;3.25;;
28304;SDS011;15569;42.652;23.040;2023-04-25T00:56:32;10.80;;;5.55;;
28304;SDS011;15569;42.652;23.040;2023-04-25T00:58:58;5.28;;;3.67;;
28304;SDS011;15569;42.652;23.040;2023-04-25T01:01:23;11.93;;;3.92;;
28304;SDS011;15569;42.652;23.040;2023-04-25T01:03:49;14.40;;;3.40;;
28304;SDS011;15569;42.652;23.040;2023-04-25T01:06:15;15.88;;;3.42;;
28304;SDS011;15569;42.652;23.040;2023-04-25T01:08:41;16.67;;;3.40;;
28304;SDS011;15569;42.652;23.040;2023-04-25T01:11:07;12.10;;;4.05;;
28304;SDS011;15569;42.652;23.040;2023-04-25T01:13:32;12.05;;;3.30;;
28304;SDS011;15569;42.652;23.040;2023-04-25T01:15:59;11.18;;;3.10;;
28304;SDS011;15569;42.652;23.040;2023-04-25T01:18:25;11.15;;;3.22;;
28304;SDS011;15569;42.652;23.040;2023-04-25T01:20:51;13.73;;;4.38;;
28304;SDS011;15569;42.652;23.040;2023-04-25T01:23:18;10.98;;;4.25;;
28304;SDS011;15569;42.652;23.040;2023-04-25T01:25:45;13.40;;;3.88;;
28304;SDS011;15569;42.652;23.040;2023-04-25T01:28:11;7.70;;;2.47;;
28304;SDS011;15569;42.652;23.040;2023-04-25T01:30:37;14.90;;;3.15;;
28304;SDS011;15569;42.652;23.040;2023-04-25T01:33:03;13.43;;;3.85;;
28304;SDS011;15569;42.652;23.040;2023-04-25T01:35:30;15.73;;;3.90;;
28304;SDS011;15569;42.652;23.040;2023-04-25T01:37:56;9.68;;;3.30;;
28304;SDS011;15569;42.652;23.040;2023-04-25T01:40:21;15.50;;;3.60;;
28304;SDS011;15569;42.652;23.040;2023-04-25T01:42:48;10.30;;;2.90;;
28304;SDS011;15569;42.652;23.040;2023-04-25T01:45:13;15.93;;;4.10;;
28304;SDS011;15569;42.652;23.040;2023-04-25T01:47:39;14.80;;;3.67;;
28304;SDS011;15569;42.652;23.040;2023-04-25T01:50:05;7.15;;;3.47;;
28304;SDS011;15569;42.652;23.040;2023-04-25T01:52:32;10.25;;;3.58;;
28304;SDS011;15569;42.652;23.040;2023-04-25T01:54:57;13.00;;;2.83;;
28304;SDS011;15569;42.652;23.040;2023-04-25T01:57:25;5.72;;;1.98;;
28304;SDS011;15569;42.652;23.040;2023-04-25T01:59:51;5.95;;;2.33;;
28304;SDS011;15569;42.652;23.040;2023-04-25T02:02:16;3.63;;;1.70;;
28304;SDS011;15569;42.652;23.040;2023-04-25T02:04:42;6.88;;;1.67;;
28304;SDS011;15569;42.652;23.040;2023-04-25T02:07:07;5.07;;;2.05;;
28304;SDS011;15569;42.652;23.040;2023-04-25T02:09:32;5.85;;;2.08;;
28304;SDS011;15569;42.652;23.040;2023-04-25T02:11:58;5.32;;;1.70;;
28304;SDS011;15569;42.652;23.040;2023-04-25T02:14:23;5.88;;;2.03;;
28304;SDS011;15569;42.652;23.040;2023-04-25T02:16:49;2.28;;;1.90;;
28304;SDS011;15569;42.652;23.040;2023-04-25T02:19:16;2.55;;;1.65;;
28304;SDS011;15569;42.652;23.040;2023-04-25T02:21:41;6.72;;;2.65;;
28304;SDS011;15569;42.652;23.040;2023-04-25T02:24:07;4.20;;;2.33;;
28304;SDS011;15569;42.652;23.040;2023-04-25T02:26:32;10.88;;;2.85;;
28304;SDS011;15569;42.652;23.040;2023-04-25T02:28:58;9.55;;;3.42;;
28304;SDS011;15569;42.652;23.040;2023-04-25T02:31:23;7.65;;;3.53;;
28304;SDS011;15569;42.652;23.040;2023-04-25T02:33:49;10.73;;;3.75;;
28304;SDS011;15569;42.652;23.040;2023-04-25T02:36:15;8.68;;;3.50;;
28304;SDS011;15569;42.652;23.040;2023-04-25T02:38:40;11.30;;;3.78;;
28304;SDS011;15569;42.652;23.040;2023-04-25T02:41:05;12.18;;;5.38;;
28304;SDS011;15569;42.652;23.040;2023-04-25T02:43:31;10.95;;;5.15;;
28304;SDS011;15569;42.652;23.040;2023-04-25T02:45:56;20.85;;;6.10;;
28304;SDS011;15569;42.652;23.040;2023-04-25T02:48:22;26.80;;;7.32;;
28304;SDS011;15569;42.652;23.040;2023-04-25T02:50:47;18.23;;;7.28;;
28304;SDS011;15569;42.652;23.040;2023-04-25T02:53:12;17.05;;;7.85;;
28304;SDS011;15569;42.652;23.040;2023-04-25T02:55:38;14.30;;;6.55;;
28304;SDS011;15569;42.652;23.040;2023-04-25T02:58:04;9.65;;;6.13;;
28304;SDS011;15569;42.652;23.040;2023-04-25T03:00:29;11.73;;;6.00;;
28304;SDS011;15569;42.652;23.040;2023-04-25T03:02:55;11.88;;;6.38;;
28304;SDS011;15569;42.652;23.040;2023-04-25T03:05:20;10.35;;;6.10;;
28304;SDS011;15569;42.652;23.040;2023-04-25T03:07:46;11.23;;;6.90;;
28304;SDS011;15569;42.652;23.040;2023-04-25T03:10:11;12.93;;;6.88;;
28304;SDS011;15569;42.652;23.040;2023-04-25T03:12:37;13.40;;;7.03;;
28304;SDS011;15569;42.652;23.040;2023-04-25T03:15:03;13.27;;;6.40;;
28304;SDS011;15569;42.652;23.040;2023-04-25T03:17:28;19.92;;;8.30;;
28304;SDS011;15569;42.652;23.040;2023-04-25T03:19:54;19.25;;;7.70;;
28304;SDS011;15569;42.652;23.040;2023-04-25T03:22:20;15.25;;;7.80;;
28304;SDS011;15569;42.652;23.040;2023-04-25T03:24:45;12.85;;;7.40;;
28304;SDS011;15569;42.652;23.040;2023-04-25T03:27:11;14.57;;;8.00;;
28304;SDS011;15569;42.652;23.040;2023-04-25T03:29:36;21.45;;;7.38;;
28304;SDS011;15569;42.652;23.040;2023-04-25T03:32:01;18.40;;;7.90;;
28304;SDS011;15569;42.652;23.040;2023-04-25T03:34:27;17.33;;;7.97;;
28304;SDS011;15569;42.652;23.040;2023-04-25T03:36:53;29.25;;;8.25;;
28304;SDS011;15569;42.652;23.040;2023-04-25T03:39:18;11.27;;;7.00;;
28304;SDS011;15569;42.652;23.040;2023-04-25T03:41:43;26.08;;;9.70;;
28304;SDS011;15569;42.652;23.040;2023-04-25T03:44:09;28.40;;;7.38;;
28304;SDS011;15569;42.652;23.040;2023-04-25T03:46:34;22.05;;;8.40;;
28304;SDS011;15569;42.652;23.040;2023-04-25T03:49:00;28.35;;;9.43;;
28304;SDS011;15569;42.652;23.040;2023-04-25T03:51:25;24.80;;;8.75;;
28304;SDS011;15569;42.652;23.040;2023-04-25T03:53:51;28.50;;;8.38;;
28304;SDS011;15569;42.652;23.040;2023-04-25T03:56:17;18.77;;;7.88;;
28304;SDS011;15569;42.652;23.040;2023-04-25T03:58:42;20.65;;;7.57;;
28304;SDS011;15569;42.652;23.040;2023-04-25T04:01:08;20.15;;;8.32;;
28304;SDS011;15569;42.652;23.040;2023-04-25T04:03:34;14.38;;;6.15;;
28304;SDS011;15569;42.652;23.040;2023-04-25T04:06:05;18.70;;;6.85;;
28304;SDS011;15569;42.652;23.040;2023-04-25T04:08:32;26.75;;;6.35;;
28304;SDS011;15569;42.652;23.040;2023-04-25T04:10:58;23.80;;;6.90;;
28304;SDS011;15569;42.652;23.040;2023-04-25T04:13:25;17.90;;;7.25;;
28304;SDS011;15569;42.652;23.040;2023-04-25T04:15:51;23.08;;;7.32;;
28304;SDS011;15569;42.652;23.040;2023-04-25T04:18:17;27.63;;;7.13;;
28304;SDS011;15569;42.652;23.040;2023-04-25T04:20:42;21.75;;;8.88;;
28304;SDS011;15569;42.652;23.040;2023-04-25T04:23:07;20.85;;;7.30;;
28304;SDS011;15569;42.652;23.040;2023-04-25T04:25:33;25.80;;;7.70;;
28304;SDS011;15569;42.652;23.040;2023-04-25T04:27:59;22.48;;;7.70;;
28304;SDS011;15569;42.652;23.040;2023-04-25T04:30:26;24.83;;;10.50;;
28304;SDS011;15569;42.652;23.040;2023-04-25T04:32:54;30.67;;;8.05;;
28304;SDS011;15569;42.652;23.040;2023-04-25T04:35:21;23.13;;;7.53;;
28304;SDS011;15569;42.652;23.040;2023-04-25T04:37:47;20.33;;;8.05;;
28304;SDS011;15569;42.652;23.040;2023-04-25T04:40:12;20.75;;;8.55;;
28304;SDS011;15569;42.652;23.040;2023-04-25T04:42:40;22.48;;;7.85;;
28304;SDS011;15569;42.652;23.040;2023-04-25T04:45:10;13.65;;;7.50;;
28304;SDS011;15569;42.652;23.040;2023-04-25T04:47:37;15.95;;;6.97;;
28304;SDS011;15569;42.652;23.040;2023-04-25T04:50:04;13.90;;;5.68;;
28304;SDS011;15569;42.652;23.040;2023-04-25T04:52:34;11.50;;;6.05;;
28304;SDS011;15569;42.652;23.040;2023-04-25T04:55:01;16.10;;;7.30;;
28304;SDS011;15569;42.652;23.040;2023-04-25T04:57:27;15.32;;;7.57;;
28304;SDS011;15569;42.652;23.040;2023-04-25T04:59:53;24.65;;;6.22;;
28304;SDS011;15569;42.652;23.040;2023-04-25T05:02:18;13.45;;;5.78;;
28304;SDS011;15569;42.652;23.040;2023-04-25T05:04:43;17.17;;;5.65;;
28304;SDS011;15569;42.652;23.040;2023-04-25T05:07:10;10.00;;;5.22;;
28304;SDS011;15569;42.652;23.040;2023-04-25T05:09:35;13.38;;;5.40;;
28304;SDS011;15569;42.652;23.040;2023-04-25T05:12:00;14.05;;;5.43;;
28304;SDS011;15569;42.652;23.040;2023-04-25T05:14:26;13.10;;;4.88;;
28304;SDS011;15569;42.652;23.040;2023-04-25T05:16:51;11.63;;;5.57;;
28304;SDS011;15569;42.652;23.040;2023-04-25T05:19:17;13.25;;;5.30;;
28304;SDS011;15569;42.652;23.040;2023-04-25T05:21:42;10.93;;;5.35;;
28304;SDS011;15569;42.652;23.040;2023-04-25T05:24:08;9.48;;;4.35;;
28304;SDS011;15569;42.652;23.040;2023-04-25T05:26:33;15.60;;;4.95;;
28304;SDS011;15569;42.652;23.040;2023-04-25T05:28:59;7.22;;;4.38;;
28304;SDS011;15569;42.652;23.040;2023-04-25T05:31:25;10.60;;;5.13;;
28304;SDS011;15569;42.652;23.040;2023-04-25T05:33:50;6.97;;;4.78;;
28304;SDS011;15569;42.652;23.040;2023-04-25T05:36:16;8.40;;;4.63;;
28304;SDS011;15569;42.652;23.040;2023-04-25T05:38:41;10.77;;;5.55;;
28304;SDS011;15569;42.652;23.040;2023-04-25T05:41:07;9.90;;;4.95;;
28304;SDS011;15569;42.652;23.040;2023-04-25T05:43:32;10.20;;;3.97;;
28304;SDS011;15569;42.652;23.040;2023-04-25T05:45:58;6.60;;;3.90;;
28304;SDS011;15569;42.652;23.040;2023-04-25T05:48:24;6.72;;;3.85;;
28304;SDS011;15569;42.652;23.040;2023-04-25T05:50:49;5.60;;;3.50;;
28304;SDS011;15569;42.652;23.040;2023-04-25T05:53:16;4.50;;;3.70;;
28304;SDS011;15569;42.652;23.040;2023-04-25T05:55:42;3.78;;;2.97;;
28304;SDS011;15569;42.652;23.040;2023-04-25T05:58:07;4.68;;;2.90;;
28304;SDS011;15569;42.652;23.040;2023-04-25T06:00:33;3.90;;;2.97;;
28304;SDS011;15569;42.652;23.040;2023-04-25T06:02:58;12.73;;;3.88;;
28304;SDS011;15569;42.652;23.040;2023-04-25T06:05:24;13.60;;;4.70;;
28304;SDS011;15569;42.652;23.040;2023-04-25T06:07:50;7.28;;;4.20;;
28304;SDS011;15569;42.652;23.040;2023-04-25T06:10:15;19.10;;;5.13;;
28304;SDS011;15569;42.652;23.040;2023-04-25T06:12:40;10.00;;;4.78;;
28304;SDS011;15569;42.652;23.040;2023-04-25T06:15:06;18.20;;;5.85;;
28304;SDS011;15569;42.652;23.040;2023-04-25T06:17:32;8.07;;;3.40;;
28304;SDS011;15569;42.652;23.040;2023-04-25T06:19:58;11.45;;;5.15;;
28304;SDS011;15569;42.652;23.040;2023-04-25T06:22:23;18.60;;;5.22;;
28304;SDS011;15569;42.652;23.040;2023-04-25T06:24:48;7.55;;;4.55;;
28304;SDS011;15569;42.652;23.040;2023-04-25T06:27:14;8.02;;;4.07;;
28304;SDS011;15569;42.652;23.040;2023-04-25T06:29:39;5.88;;;3.70;;
28304;SDS011;15569;42.652;23.040;2023-04-25T06:32:05;4.88;;;3.38;;
28304;SDS011;15569;42.652;23.040;2023-04-25T06:34:30;5.35;;;3.45;;
28304;SDS011;15569;42.652;23.040;2023-04-25T06:36:56;6.32;;;3.67;;
28304;SDS011;15569;42.652;23.040;2023-04-25T06:39:21;5.25;;;3.53;;
28304;SDS011;15569;42.652;23.040;2023-04-25T06:41:48;6.80;;;4.20;;
28304;SDS011;15569;42.652;23.040;2023-04-25T06:44:14;4.20;;;2.92;;
28304;SDS011;15569;42.652;23.040;2023-04-25T06:46:40;5.90;;;4.03;;
28304;SDS011;15569;42.652;23.040;2023-04-25T06:49:05;4.78;;;3.22;;
28304;SDS011;15569;42.652;23.040;2023-04-25T06:51:31;7.97;;;3.25;;
28304;SDS011;15569;42.652;23.040;2023-04-25T06:53:56;8.27;;;3.75;;
28304;SDS011;15569;42.652;23.040;2023-04-25T06:56:22;4.75;;;3.42;;
28304;SDS011;15569;42.652;23.040;2023-04-25T06:58:48;6.45;;;3.50;;
28304;SDS011;15569;42.652;23.040;2023-04-25T07:01:14;4.72;;;3.20;;
28304;SDS011;15569;42.652;23.040;2023-04-25T07:03:39;4.25;;;3.60;;
28304;SDS011;15569;42.652;23.040;2023-04-25T07:06:05;5.65;;;4.10;;
28304;SDS011;15569;42.652;23.040;2023-04-25T07:08:30;2.78;;;2.13;;
28304;SDS011;15569;42.652;23.040;2023-04-25T07:10:56;3.75;;;2.72;;
28304;SDS011;15569;42.652;23.040;2023-04-25T07:13:21;3.95;;;3.28;;
28304;SDS011;15569;42.652;23.040;2023-04-25T07:15:47;2.95;;;2.63;;
28304;SDS011;15569;42.652;23.040;2023-04-25T07:18:13;5.28;;;2.78;;
28304;SDS011;15569;42.652;23.040;2023-04-25T07:20:38;5.28;;;2.65;;
28304;SDS011;15569;42.652;23.040;2023-04-25T07:23:04;4.68;;;3.20;;
28304;SDS011;15569;42.652;23.040;2023-04-25T07:25:29;7.28;;;4.20;;
28304;SDS011;15569;42.652;23.040;2023-04-25T07:27:55;7.03;;;4.32;;
28304;SDS011;15569;42.652;23.040;2023-04-25T07:30:21;8.57;;;3.67;;
28304;SDS011;15569;42.652;23.040;2023-04-25T07:32:47;3.65;;;2.38;;
28304;SDS011;15569;42.652;23.040;2023-04-25T07:35:13;4.40;;;3.22;;
28304;SDS011;15569;42.652;23.040;2023-04-25T07:37:39;6.13;;;4.22;;
28304;SDS011;15569;42.652;23.040;2023-04-25T07:40:04;5.03;;;2.78;;
28304;SDS011;15569;42.652;23.040;2023-04-25T07:42:31;7.95;;;2.85;;
28304;SDS011;15569;42.652;23.040;2023-04-25T07:44:57;4.13;;;2.90;;
28304;SDS011;15569;42.652;23.040;2023-04-25T07:47:22;5.75;;;2.95;;
28304;SDS011;15569;42.652;23.040;2023-04-25T07:49:48;3.30;;;2.33;;
28304;SDS011;15569;42.652;23.040;2023-04-25T07:52:13;3.88;;;2.33;;
28304;SDS011;15569;42.652;23.040;2023-04-25T07:54:39;20.83;;;10.02;;
28304;SDS011;15569;42.652;23.040;2023-04-25T07:57:04;4.97;;;3.30;;
28304;SDS011;15569;42.652;23.040;2023-04-25T07:59:31;3.60;;;2.42;;
28304;SDS011;15569;42.652;23.040;2023-04-25T08:01:57;3.92;;;2.33;;
28304;SDS011;15569;42.652;23.040;2023-04-25T08:04:22;5.25;;;2.40;;
28304;SDS011;15569;42.652;23.040;2023-04-25T08:09:13;4.40;;;2.78;;
28304;SDS011;15569;42.652;23.040;2023-04-25T08:11:40;3.53;;;2.50;;
28304;SDS011;15569;42.652;23.040;2023-04-25T08:14:06;7.30;;;3.67;;
28304;SDS011;15569;42.652;23.040;2023-04-25T08:16:32;2.22;;;1.60;;
28304;SDS011;15569;42.652;23.040;2023-04-25T08:18:58;7.13;;;2.00;;
28304;SDS011;15569;42.652;23.040;2023-04-25T08:21:24;5.15;;;3.28;;
28304;SDS011;15569;42.652;23.040;2023-04-25T08:23:50;3.22;;;2.22;;
28304;SDS011;15569;42.652;23.040;2023-04-25T08:26:15;3.38;;;2.08;;
28304;SDS011;15569;42.652;23.040;2023-04-25T08:28:41;2.80;;;1.95;;
28304;SDS011;15569;42.652;23.040;2023-04-25T08:31:06;3.55;;;2.05;;
28304;SDS011;15569;42.652;23.040;2023-04-25T08:33:32;4.70;;;2.58;;
28304;SDS011;15569;42.652;23.040;2023-04-25T08:35:57;7.40;;;4.40;;
28304;SDS011;15569;42.652;23.040;2023-04-25T08:38:23;2.33;;;1.90;;
28304;SDS011;15569;42.652;23.040;2023-04-25T08:40:49;4.32;;;2.05;;
28304;SDS011;15569;42.652;23.040;2023-04-25T08:43:17;4.07;;;1.58;;
28304;SDS011;15569;42.652;23.040;2023-04-25T08:45:44;3.28;;;1.67;;
28304;SDS011;15569;42.652;23.040;2023-04-25T08:48:13;5.45;;;2.28;;
28304;SDS011;15569;42.652;23.040;2023-04-25T08:50:49;3.08;;;1.20;;
28304;SDS011;15569;42.652;23.040;2023-04-25T08:53:16;1.30;;;1.20;;
28304;SDS011;15569;42.652;23.040;2023-04-25T08:55:45;5.50;;;2.85;;
28304;SDS011;15569;42.652;23.040;2023-04-25T08:58:11;0.90;;;0.90;;
28304;SDS011;15569;42.652;23.040;2023-04-25T09:00:38;1.02;;;0.60;;
28304;SDS011;15569;42.652;23.040;2023-04-25T09:03:03;1.33;;;0.80;;
28304;SDS011;15569;42.652;23.040;2023-04-25T09:05:29;2.28;;;1.60;;
28304;SDS011;15569;42.652;23.040;2023-04-25T09:07:55;1.00;;;0.73;;
28304;SDS011;15569;42.652;23.040;2023-04-25T09:10:21;1.00;;;0.90;;
28304;SDS011;15569;42.652;23.040;2023-04-25T09:13:08;2.13;;;1.10;;
28304;SDS011;15569;42.652;23.040;2023-04-25T09:16:17;1.27;;;1.05;;
28304;SDS011;15569;42.652;23.040;2023-04-25T09:18:27;2.00;;;0.75;;
28304;SDS011;15569;42.652;23.040;2023-04-25T09:23:31;1.92;;;0.98;;
28304;SDS011;15569;42.652;23.040;2023-04-25T09:26:06;0.80;;;0.77;;
28304;SDS011;15569;42.652;23.040;2023-04-25T09:28:32;0.80;;;0.80;;
28304;SDS011;15569;42.652;23.040;2023-04-25T09:31:00;0.60;;;0.60;;
28304;SDS011;15569;42.652;23.040;2023-04-25T09:33:29;1.08;;;1.02;;
28304;SDS011;15569;42.652;23.040;2023-04-25T09:36:03;1.77;;;0.75;;
28304;SDS011;15569;42.652;23.040;2023-04-25T09:38:31;1.42;;;0.82;;
28304;SDS011;15569;42.652;23.040;2023-04-25T09:40:58;1.02;;;0.90;;
28304;SDS011;15569;42.652;23.040;2023-04-25T09:43:23;2.88;;;0.77;;
28304;SDS011;15569;42.652;23.040;2023-04-25T09:45:50;0.85;;;0.75;;
28304;SDS011;15569;42.652;23.040;2023-04-25T09:48:17;1.23;;;0.90;;
28304;SDS011;15569;42.652;23.040;2023-04-25T09:50:44;2.17;;;0.90;;
28304;SDS011;15569;42.652;23.040;2023-04-25T09:53:10;0.68;;;0.68;;
28304;SDS011;15569;42.652;23.040;2023-04-25T09:55:35;1.73;;;0.88;;
28304;SDS011;15569;42.652;23.040;2023-04-25T09:58:05;0.80;;;0.80;;
28304;SDS011;15569;42.652;23.040;2023-04-25T10:00:32;0.98;;;0.70;;
28304;SDS011;15569;42.652;23.040;2023-04-25T10:02:57;1.00;;;0.50;;
28304;SDS011;15569;42.652;23.040;2023-04-25T10:05:26;0.50;;;0.50;;
28304;SDS011;15569;42.652;23.040;2023-04-25T10:07:55;0.52;;;0.35;;
28304;SDS011;15569;42.652;23.040;2023-04-25T10:10:21;0.68;;;0.65;;
28304;SDS011;15569;42.652;23.040;2023-04-25T10:12:50;0.70;;;0.50;;
28304;SDS011;15569;42.652;23.040;2023-04-25T10:15:16;0.73;;;0.60;;
28304;SDS011;15569;42.652;23.040;2023-04-25T10:17:42;0.50;;;0.50;;
28304;SDS011;15569;42.652;23.040;2023-04-25T10:20:08;0.68;;;0.57;;
28304;SDS011;15569;42.652;23.040;2023-04-25T10:22:37;0.68;;;0.68;;
28304;SDS011;15569;42.652;23.040;2023-04-25T10:25:05;0.55;;;0.52;;
28304;SDS011;15569;42.652;23.040;2023-04-25T10:27:33;1.23;;;1.00;;
28304;SDS011;15569;42.652;23.040;2023-04-25T10:30:14;2.08;;;1.10;;
28304;SDS011;15569;42.652;23.040;2023-04-25T10:32:43;0.65;;;0.65;;
28304;SDS011;15569;42.652;23.040;2023-04-25T10:38:08;1.17;;;0.60;;
28304;SDS011;15569;42.652;23.040;2023-04-25T10:40:35;1.65;;;1.33;;
28304;SDS011;15569;42.652;23.040;2023-04-25T10:45:54;12.77;;;6.03;;
28304;SDS011;15569;42.652;23.040;2023-04-25T10:48:26;7.68;;;4.03;;
28304;SDS011;15569;42.652;23.040;2023-04-25T10:51:08;2.90;;;1.52;;
28304;SDS011;15569;42.652;23.040;2023-04-25T10:53:36;9.27;;;4.47;;
28304;SDS011;15569;42.652;23.040;2023-04-25T10:56:17;7.57;;;3.70;;
28304;SDS011;15569;42.652;23.040;2023-04-25T10:58:45;9.23;;;5.35;;
28304;SDS011;15569;42.652;23.040;2023-04-25T11:01:15;13.35;;;6.88;;
28304;SDS011;15569;42.652;23.040;2023-04-25T11:03:44;10.18;;;5.50;;
28304;SDS011;15569;42.652;23.040;2023-04-25T11:08:59;14.95;;;7.70;;
28304;SDS011;15569;42.652;23.040;2023-04-25T11:11:26;4.72;;;2.85;;
28304;SDS011;15569;42.652;23.040;2023-04-25T11:13:52;6.53;;;3.38;;
28304;SDS011;15569;42.652;23.040;2023-04-25T11:16:17;4.53;;;1.77;;
28304;SDS011;15569;42.652;23.040;2023-04-25T11:18:43;4.22;;;1.73;;
28304;SDS011;15569;42.652;23.040;2023-04-25T11:21:10;7.72;;;3.38;;
28304;SDS011;15569;42.652;23.040;2023-04-25T11:23:36;4.70;;;2.15;;
28304;SDS011;15569;42.652;23.040;2023-04-25T11:26:02;2.25;;;1.55;;
28304;SDS011;15569;42.652;23.040;2023-04-25T11:28:28;3.35;;;1.90;;
28304;SDS011;15569;42.652;23.040;2023-04-25T11:30:54;2.90;;;1.90;;
28304;SDS011;15569;42.652;23.040;2023-04-25T11:33:23;12.75;;;4.95;;
28304;SDS011;15569;42.652;23.040;2023-04-25T11:35:49;4.28;;;2.10;;
28304;SDS011;15569;42.652;23.040;2023-04-25T11:38:15;2.70;;;2.03;;
28304;SDS011;15569;42.652;23.040;2023-04-25T11:40:40;2.88;;;2.58;;
28304;SDS011;15569;42.652;23.040;2023-04-25T11:43:06;5.95;;;1.48;;
28304;SDS011;15569;42.652;23.040;2023-04-25T11:45:32;2.17;;;1.42;;
28304;SDS011;15569;42.652;23.040;2023-04-25T11:47:57;1.77;;;1.40;;
28304;SDS011;15569;42.652;23.040;2023-04-25T11:50:23;1.10;;;1.00;;
28304;SDS011;15569;42.652;23.040;2023-04-25T11:52:48;3.00;;;1.05;;
28304;SDS011;15569;42.652;23.040;2023-04-25T11:55:17;1.38;;;0.98;;
28304;SDS011;15569;42.652;23.040;2023-04-25T12:00:14;2.28;;;1.30;;
28304;SDS011;15569;42.652;23.040;2023-04-25T12:02:45;4.10;;;1.80;;
28304;SDS011;15569;42.652;23.040;2023-04-25T12:05:13;2.28;;;1.30;;
28304;SDS011;15569;42.652;23.040;2023-04-25T12:07:40;2.28;;;1.73;;
28304;SDS011;15569;42.652;23.040;2023-04-25T12:10:10;2.63;;;1.40;;
28304;SDS011;15569;42.652;23.040;2023-04-25T12:12:37;3.00;;;1.88;;
28304;SDS011;15569;42.652;23.040;2023-04-25T12:15:09;2.17;;;1.50;;
28304;SDS011;15569;42.652;23.040;2023-04-25T12:17:40;4.65;;;2.35;;
28304;SDS011;15569;42.652;23.040;2023-04-25T12:20:11;6.15;;;1.77;;
28304;SDS011;15569;42.652;23.040;2023-04-25T12:22:40;1.88;;;1.58;;
28304;SDS011;15569;42.652;23.040;2023-04-25T12:25:09;4.47;;;2.47;;
28304;SDS011;15569;42.652;23.040;2023-04-25T12:27:53;4.30;;;1.60;;
28304;SDS011;15569;42.652;23.040;2023-04-25T12:30:19;6.13;;;1.77;;
28304;SDS011;15569;42.652;23.040;2023-04-25T12:32:45;10.60;;;4.97;;
28304;SDS011;15569;42.652;23.040;2023-04-25T12:35:10;9.85;;;4.25;;
28304;SDS011;15569;42.652;23.040;2023-04-25T12:37:36;8.20;;;3.55;;
28304;SDS011;15569;42.652;23.040;2023-04-25T12:40:01;2.55;;;1.80;;
28304;SDS011;15569;42.652;23.040;2023-04-25T12:42:28;4.03;;;3.08;;
28304;SDS011;15569;42.652;23.040;2023-04-25T12:44:53;6.10;;;3.00;;
28304;SDS011;15569;42.652;23.040;2023-04-25T12:47:18;5.97;;;3.35;;
28304;SDS011;15569;42.652;23.040;2023-04-25T12:49:44;3.90;;;2.75;;
28304;SDS011;15569;42.652;23.040;2023-04-25T12:52:10;2.20;;;1.45;;
28304;SDS011;15569;42.652;23.040;2023-04-25T12:54:35;3.33;;;1.65;;
28304;SDS011;15569;42.652;23.040;2023-04-25T12:57:01;2.47;;;1.90;;
28304;SDS011;15569;42.652;23.040;2023-04-25T12:59:27;12.00;;;4.72;;
28304;SDS011;15569;42.652;23.040;2023-04-25T13:01:53;7.60;;;1.90;;
28304;SDS011;15569;42.652;23.040;2023-04-25T13:04:18;3.88;;;2.60;;
28304;SDS011;15569;42.652;23.040;2023-04-25T13:06:45;4.78;;;2.80;;
28304;SDS011;15569;42.652;23.040;2023-04-25T13:09:11;3.10;;;2.88;;
28304;SDS011;15569;42.652;23.040;2023-04-25T13:11:37;4.75;;;2.20;;
28304;SDS011;15569;42.652;23.040;2023-04-25T13:14:02;6.70;;;2.95;;
28304;SDS011;15569;42.652;23.040;2023-04-25T13:16:27;6.35;;;3.67;;
28304;SDS011;15569;42.652;23.040;2023-04-25T13:18:53;10.00;;;4.50;;
28304;SDS011;15569;42.652;23.040;2023-04-25T13:21:18;5.07;;;3.38;;
28304;SDS011;15569;42.652;23.040;2023-04-25T13:23:44;4.00;;;2.38;;
28304;SDS011;15569;42.652;23.040;2023-04-25T13:26:11;4.25;;;1.60;;
28304;SDS011;15569;42.652;23.040;2023-04-25T13:28:37;0.75;;;0.70;;
28304;SDS011;15569;42.652;23.040;2023-04-25T13:31:02;5.75;;;2.60;;
28304;SDS011;15569;42.652;23.040;2023-04-25T13:33:28;5.60;;;2.55;;
28304;SDS011;15569;42.652;23.040;2023-04-25T13:35:53;3.95;;;1.95;;
28304;SDS011;15569;42.652;23.040;2023-04-25T13:38:23;5.80;;;3.08;;
28304;SDS011;15569;42.652;23.040;2023-04-25T13:43:18;0.88;;;0.77;;
28304;SDS011;15569;42.652;23.040;2023-04-25T13:45:44;1.73;;;1.10;;
28304;SDS011;15569;42.652;23.040;2023-04-25T13:48:10;0.75;;;0.65;;
28304;SDS011;15569;42.652;23.040;2023-04-25T13:50:35;5.13;;;1.73;;
28304;SDS011;15569;42.652;23.040;2023-04-25T13:53:01;2.33;;;2.13;;
28304;SDS011;15569;42.652;23.040;2023-04-25T13:55:26;2.22;;;1.42;;
28304;SDS011;15569;42.652;23.040;2023-04-25T13:57:51;5.47;;;3.35;;
28304;SDS011;15569;42.652;23.040;2023-04-25T14:00:17;1.35;;;1.25;;
28304;SDS011;15569;42.652;23.040;2023-04-25T14:02:42;1.85;;;0.68;;
28304;SDS011;15569;42.652;23.040;2023-04-25T14:05:08;1.23;;;0.85;;
28304;SDS011;15569;42.652;23.040;2023-04-25T14:07:34;0.68;;;0.50;;
28304;SDS011;15569;42.652;23.040;2023-04-25T14:10:00;1.05;;;0.90;;
28304;SDS011;15569;42.652;23.040;2023-04-25T14:12:25;0.70;;;0.70;;
28304;SDS011;15569;42.652;23.040;2023-04-25T14:14:51;6.50;;;1.20;;
28304;SDS011;15569;42.652;23.040;2023-04-25T14:17:17;1.52;;;0.90;;
28304;SDS011;15569;42.652;23.040;2023-04-25T14:19:43;0.60;;;0.60;;
28304;SDS011;15569;42.652;23.040;2023-04-25T14:22:10;1.20;;;0.88;;
28304;SDS011;15569;42.652;23.040;2023-04-25T14:24:36;0.55;;;0.55;;
28304;SDS011;15569;42.652;23.040;2023-04-25T14:27:01;0.95;;;0.80;;
28304;SDS011;15569;42.652;23.040;2023-04-25T14:29:29;0.73;;;0.73;;
28304;SDS011;15569;42.652;23.040;2023-04-25T14:31:54;1.48;;;0.68;;
28304;SDS011;15569;42.652;23.040;2023-04-25T14:34:21;1.10;;;0.70;;
28304;SDS011;15569;42.652;23.040;2023-04-25T14:36:46;0.73;;;0.73;;
28304;SDS011;15569;42.652;23.040;2023-04-25T14:39:12;2.30;;;1.50;;
28304;SDS011;15569;42.652;23.040;2023-04-25T14:41:39;1.25;;;0.82;;
28304;SDS011;15569;42.652;23.040;2023-04-25T14:44:04;1.08;;;1.00;;